createdAt,value
2022-10-14T00:01:51.677Z,94962.33
2022-10-14T00:04:18.562Z,94962.56
2022-10-14T00:06:45.250Z,94959.75
2022-10-14T00:09:12.393Z,94957.29
2022-10-14T00:11:39.265Z,94958.92
2022-10-14T00:14:14.038Z,94955.10
2022-10-14T00:16:42.796Z,94955.33
2022-10-14T00:19:09.567Z,94960.36
2022-10-14T00:21:38.932Z,94961.95
2022-10-14T00:24:06.220Z,94961.79
2022-10-14T00:26:36.478Z,94958.10
2022-10-14T00:29:05.610Z,94956.15
2022-10-14T00:31:33.389Z,94953.72
2022-10-14T00:34:00.112Z,94945.13
2022-10-14T00:36:27.660Z,94943.64
2022-10-14T00:38:55.086Z,94939.42
2022-10-14T00:41:28.841Z,94939.98
2022-10-14T00:44:03.257Z,94936.33
2022-10-14T00:46:38.569Z,94933.77
2022-10-14T00:49:13.667Z,94931.78
2022-10-14T00:51:43.150Z,94926.94
2022-10-14T00:54:12.962Z,94925.36
2022-10-14T00:56:39.891Z,94918.48
2022-10-14T00:59:35.339Z,94915.92
2022-10-14T01:02:02.525Z,94915.83
2022-10-14T01:04:29.524Z,94917.44
2022-10-14T01:22:36.753Z,94911.02
2022-10-14T01:29:14.501Z,94911.30
2022-10-14T01:55:17.270Z,94883.83
2022-10-14T02:05:32.814Z,94881.05
2022-10-14T02:08:25.684Z,94878.75
2022-10-14T02:11:11.464Z,94874.66
2022-10-14T02:13:56.951Z,94873.79
2022-10-14T02:16:26.385Z,94871.68
2022-10-14T02:19:08.540Z,94871.20
2022-10-14T02:22:02.798Z,94866.98
2022-10-14T02:24:39.932Z,94867.44
2022-10-14T02:57:44.906Z,94874.18
2022-10-14T03:00:12.165Z,94876.13
2022-10-14T03:21:55.863Z,94883.15
2022-10-14T03:24:22.561Z,94885.41
2022-10-14T03:26:49.223Z,94884.77
2022-10-14T03:29:15.996Z,94884.30
2022-10-14T03:31:44.802Z,94884.94
2022-10-14T03:34:14.540Z,94879.95
2022-10-14T03:36:41.323Z,94877.54
2022-10-14T03:39:09.479Z,94877.30
2022-10-14T03:41:36.230Z,94873.78
2022-10-14T03:44:03.164Z,94873.48
2022-10-14T03:46:30.376Z,94877.41
2022-10-14T03:48:57.372Z,94873.31
2022-10-14T03:55:40.272Z,94866.13
2022-10-14T03:58:58.638Z,94865.02
2022-10-14T04:01:25.544Z,94861.13
2022-10-14T04:27:07.757Z,94865.11
2022-10-14T04:33:16.232Z,94867.69
2022-10-14T04:35:42.976Z,94866.40
2022-10-14T04:39:05.113Z,94866.73
2022-10-14T04:41:32.234Z,94861.61
2022-10-14T04:43:58.992Z,94863.83
2022-10-14T04:46:25.789Z,94861.28
2022-10-14T04:48:52.543Z,94865.37
2022-10-14T04:51:19.269Z,94870.20
2022-10-14T04:53:46.098Z,94874.08
2022-10-14T04:56:12.902Z,94872.80
2022-10-14T04:58:39.665Z,94874.91
2022-10-14T05:01:06.569Z,94875.16
2022-10-14T05:03:33.333Z,94876.00
2022-10-14T05:06:00.038Z,94872.71
2022-10-14T05:08:27.189Z,94873.46
2022-10-14T05:10:53.919Z,94877.48
2022-10-14T05:13:20.680Z,94880.92
2022-10-14T06:17:29.960Z,94893.02
2022-10-14T06:19:56.638Z,94897.37
2022-10-14T06:22:23.793Z,94896.65
2022-10-14T06:24:50.987Z,94895.86
2022-10-14T06:27:18.335Z,94901.73
2022-10-14T06:29:45.031Z,94901.76
2022-10-14T06:32:12.047Z,94902.92
2022-10-14T06:34:39.106Z,94903.77
2022-10-14T06:37:05.876Z,94909.27
2022-10-14T06:39:32.662Z,94908.04
2022-10-14T06:41:59.431Z,94914.11
2022-10-14T06:44:26.212Z,94911.23
2022-10-14T06:46:52.981Z,94910.54
2022-10-14T06:49:19.765Z,94910.63
2022-10-14T06:51:46.532Z,94913.77
2022-10-14T06:54:13.301Z,94909.73
2022-10-14T06:56:39.982Z,94907.63
2022-10-14T06:59:06.711Z,94911.77
2022-10-14T07:01:33.576Z,94908.05
2022-10-14T07:04:00.335Z,94910.13
2022-10-14T07:06:27.456Z,94914.82
2022-10-14T07:08:54.290Z,94911.49
2022-10-14T07:11:21.011Z,94916.79
2022-10-14T08:30:28.219Z,94906.05
2022-10-14T08:32:55.452Z,94905.87
2022-10-14T08:35:22.280Z,94907.56
2022-10-14T08:37:59.864Z,94906.63
2022-10-14T08:40:30.085Z,94912.48
2022-10-14T08:50:54.998Z,94919.16
2022-10-14T08:53:35.991Z,94921.88
2022-10-14T08:56:03.663Z,94921.38
2022-10-14T08:58:42.500Z,94916.74
2022-10-14T09:01:31.882Z,94914.93
2022-10-14T09:04:02.900Z,94913.92
2022-10-14T09:06:32.758Z,94919.17
2022-10-14T09:09:30.807Z,94920.36
2022-10-14T09:12:01.544Z,94922.52
2022-10-14T09:14:36.732Z,94922.01
2022-10-14T09:17:18.067Z,94925.27
2022-10-14T09:19:55.777Z,94926.76
2022-10-14T09:22:24.376Z,94923.86
2022-10-14T09:24:51.344Z,94921.96
2022-10-14T09:27:24.539Z,94920.11
2022-10-14T09:29:59.533Z,94919.52
2022-10-14T09:32:31.835Z,94916.11
2022-10-14T09:34:59.593Z,94914.51
2022-10-14T09:37:29.730Z,94914.56
2022-10-14T09:40:01.445Z,94912.00
2022-10-14T09:42:44.504Z,94917.23
2022-10-14T09:45:24.839Z,94916.66
2022-10-14T09:47:59.537Z,94918.94
2022-10-14T09:50:41.422Z,94917.77
2022-10-14T09:53:16.946Z,94923.52
2022-10-14T09:55:54.835Z,94924.10
2022-10-14T09:58:54.117Z,94929.29
2022-10-14T10:01:27.487Z,94927.45
2022-10-14T10:03:55.854Z,94929.02
2022-10-14T10:06:27.206Z,94928.04
2022-10-14T10:08:53.966Z,94924.80
2022-10-14T10:11:30.635Z,94926.67
2022-10-14T10:13:58.403Z,94924.94
2022-10-14T10:16:31.666Z,94924.69
2022-10-14T10:19:18.714Z,94928.29
2022-10-14T10:21:47.577Z,94923.95
2022-10-14T10:24:26.197Z,94925.15
2022-10-14T10:26:55.666Z,94918.45
2022-10-14T10:29:34.745Z,94912.29
2022-10-14T10:32:15.417Z,94913.11
2022-10-14T10:34:56.740Z,94908.48
2022-10-14T10:37:31.629Z,94909.94
2022-10-14T10:40:20.511Z,94901.74
2022-10-14T10:43:42.806Z,94903.39
2022-10-14T10:46:36.088Z,94899.31
2022-10-14T10:49:21.263Z,94895.31
2022-10-14T10:51:54.190Z,94894.79
2022-10-14T10:54:42.644Z,94890.23
2022-10-14T10:57:34.840Z,94884.27
2022-10-14T11:00:13.023Z,94883.95
2022-10-14T11:02:59.496Z,94887.23
2022-10-14T11:06:10.480Z,94883.71
2022-10-14T11:09:22.024Z,94878.76
2022-10-14T11:12:15.745Z,94876.48
2022-10-14T11:14:53.672Z,94877.02
2022-10-14T11:17:26.569Z,94877.71
2022-10-14T11:20:27.849Z,94878.83
2022-10-14T11:23:22.630Z,94870.80
2022-10-14T11:25:59.207Z,94869.66
2022-10-14T11:28:39.207Z,94870.98
2022-10-14T11:31:24.549Z,94870.71
2022-10-14T11:34:20.548Z,94870.65
2022-10-14T11:36:53.257Z,94870.35
2022-10-14T11:39:42.177Z,94872.95
2022-10-14T11:42:33.927Z,94871.37
2022-10-14T11:45:20.466Z,94869.14
2022-10-14T11:47:51.081Z,94872.90
2022-10-14T11:50:20.684Z,94867.54
2022-10-14T11:53:14.540Z,94866.87
2022-10-14T11:55:47.533Z,94864.66
2022-10-14T11:58:20.281Z,94863.70
2022-10-14T12:00:52.845Z,94865.14
2022-10-14T12:03:50.347Z,94865.95
2022-10-14T12:06:25.323Z,94866.67
2022-10-14T12:09:00.701Z,94858.45
2022-10-14T12:11:48.584Z,94856.59
2022-10-14T12:14:21.524Z,94860.65
2022-10-14T12:16:49.430Z,94858.84
2022-10-14T12:19:28.846Z,94859.14
2022-10-14T12:22:09.959Z,94862.52
2022-10-14T12:24:40.374Z,94860.21
2022-10-14T12:27:11.585Z,94854.10
2022-10-14T12:29:43.242Z,94854.15
2022-10-14T12:32:22.438Z,94854.56
2022-10-14T12:35:02.282Z,94853.22
2022-10-14T12:37:32.593Z,94858.27
2022-10-14T12:40:02.526Z,94859.29
2022-10-14T12:42:32.733Z,94858.63
2022-10-14T12:45:02.215Z,94859.77
2022-10-14T12:47:36.098Z,94863.95
2022-10-14T12:50:06.363Z,94866.57
2022-10-14T12:53:20.553Z,94867.22
2022-10-14T12:56:02.186Z,94869.17
2022-10-14T13:14:47.338Z,94866.48
2022-10-14T13:17:46.994Z,94869.81
2022-10-14T13:20:45.324Z,94870.56
2022-10-14T13:23:43.382Z,94870.52
2022-10-14T13:26:20.368Z,94872.30
2022-10-14T13:29:06.794Z,94873.73
2022-10-14T13:31:52.470Z,94872.32
2022-10-14T13:34:42.675Z,94873.14
2022-10-14T13:37:27.958Z,94874.27
2022-10-14T13:39:56.035Z,94876.77
2022-10-14T13:42:31.826Z,94875.96
2022-10-14T13:45:12.250Z,94874.31
2022-10-14T13:47:43.743Z,94870.47
2022-10-14T13:50:13.454Z,94869.81
2022-10-14T13:52:41.014Z,94866.42
2022-10-14T13:55:17.891Z,94865.20
2022-10-14T13:58:19.525Z,94866.84
2022-10-14T14:01:03.020Z,94868.75
2022-10-14T14:03:34.342Z,94863.98
2022-10-14T14:06:02.142Z,94867.24
2022-10-14T14:08:41.148Z,94865.62
2022-10-14T14:11:18.149Z,94860.77
2022-10-14T14:14:08.346Z,94864.02
2022-10-14T14:16:57.253Z,94864.88
2022-10-14T14:19:30.876Z,94868.65
2022-10-14T14:22:27.323Z,94865.06
2022-10-14T14:28:06.027Z,94866.23
2022-10-14T14:30:36.011Z,94866.20
2022-10-14T14:33:07.509Z,94865.00
2022-10-14T14:35:34.518Z,94867.17
2022-10-14T14:38:01.628Z,94868.78
2022-10-14T14:40:31.370Z,94869.92
2022-10-14T14:43:00.993Z,94873.20
2022-10-14T14:45:31.237Z,94873.14
2022-10-14T14:48:03.363Z,94876.29
2022-10-14T14:50:36.934Z,94871.70
2022-10-14T14:53:24.150Z,94878.31
2022-10-14T14:55:54.150Z,94881.26
2022-10-14T14:58:31.897Z,94882.05
2022-10-14T15:00:59.405Z,94885.49
2022-10-14T15:03:28.864Z,94878.55
2022-10-14T15:06:01.626Z,94879.23
2022-10-14T15:08:34.219Z,94878.46
2022-10-14T15:11:01.849Z,94879.66
2022-10-14T15:13:39.194Z,94881.77
2022-10-14T15:16:07.370Z,94880.85
2022-10-14T15:18:44.143Z,94879.83
2022-10-14T15:21:21.822Z,94875.30
2022-10-14T15:23:53.503Z,94879.27
2022-10-14T15:26:30.593Z,94877.10
2022-10-14T15:29:08.071Z,94880.28
2022-10-14T15:31:36.511Z,94881.13
2022-10-14T15:34:04.832Z,94880.26
2022-10-14T15:36:34.581Z,94884.60
2022-10-14T15:39:02.676Z,94884.66
2022-10-14T15:41:29.584Z,94883.48
2022-10-14T15:43:56.342Z,94884.39
2022-10-14T15:46:42.014Z,94885.46
2022-10-14T15:49:16.738Z,94877.27
2022-10-14T15:51:43.500Z,94880.41
2022-10-14T15:54:12.688Z,94882.16
2022-10-14T15:56:39.572Z,94884.52
2022-10-14T15:59:06.483Z,94883.36
2022-10-14T16:01:36.860Z,94885.73
2022-10-14T16:04:04.132Z,94884.81
2022-10-14T16:06:32.777Z,94887.39
2022-10-14T16:08:59.553Z,94891.84
2022-10-14T16:11:29.212Z,94892.31
2022-10-14T16:13:56.331Z,94891.52
2022-10-14T16:16:33.002Z,94893.08
2022-10-14T16:19:02.718Z,94893.22
2022-10-14T16:21:32.257Z,94897.70
2022-10-14T16:23:59.174Z,94896.03
2022-10-14T16:26:26.371Z,94896.53
2022-10-14T16:28:53.334Z,94898.84
2022-10-14T16:31:21.481Z,94898.55
2022-10-14T16:33:53.671Z,94903.08
2022-10-14T16:36:21.381Z,94906.52
2022-10-14T16:38:48.079Z,94903.31
2022-10-14T16:41:14.864Z,94904.92
2022-10-14T20:01:53.158Z,95029.38
2022-10-14T20:04:22.803Z,95031.82
2022-10-14T20:06:51.974Z,95036.36
2022-10-14T20:09:18.724Z,95038.52
2022-10-14T20:11:45.470Z,95037.40
2022-10-14T20:14:12.328Z,95043.34
2022-10-14T20:16:39.202Z,95045.21
2022-10-14T20:19:06.443Z,95046.11
2022-10-14T20:21:33.221Z,95046.98
2022-10-14T20:24:00.427Z,95048.73
2022-10-14T20:26:27.211Z,95050.61
2022-10-14T20:28:54.680Z,95050.39
2022-10-14T20:31:25.547Z,95052.27
2022-10-14T20:33:52.315Z,95051.83
2022-10-14T20:36:21.204Z,95057.31
2022-10-14T20:38:49.019Z,95054.23
2022-10-14T20:41:26.888Z,95054.95
2022-10-14T20:43:55.583Z,95052.38
2022-10-14T20:46:22.978Z,95050.94
2022-10-14T20:48:54.776Z,95056.60
2022-10-14T20:51:22.956Z,95056.97
2022-10-14T20:53:50.099Z,95052.38
2022-10-14T20:56:16.896Z,95048.25
2022-10-14T20:58:43.639Z,95044.35
2022-10-14T21:01:13.727Z,95044.40
2022-10-14T21:03:41.825Z,95045.96
2022-10-14T21:06:12.055Z,95044.09
2022-10-14T21:08:39.780Z,95040.20
2022-10-14T21:11:13.991Z,95039.84
2022-10-14T21:13:44.967Z,95047.48
2022-10-14T21:16:20.843Z,95045.88
2022-10-14T21:18:53.568Z,95047.39
2022-10-14T21:21:26.412Z,95043.59
2022-10-14T21:23:53.259Z,95047.25
2022-10-14T21:26:19.967Z,95045.13
2022-10-14T21:28:46.860Z,95049.86
2022-10-14T21:31:17.508Z,95048.55
2022-10-14T21:33:47.853Z,95047.15
2022-10-14T21:36:16.485Z,95049.63
2022-10-14T22:28:58.338Z,95029.69
2022-10-14T22:31:25.558Z,95030.23
2022-10-14T22:33:52.293Z,95034.35
2022-10-14T22:44:01.563Z,95031.92
2022-10-14T22:46:30.151Z,95031.75
2022-10-14T22:48:58.641Z,95035.52
2022-10-14T23:18:27.167Z,95011.88
2022-10-14T23:20:54.341Z,95014.86
2022-10-14T23:23:21.117Z,95012.08
2022-10-14T23:25:47.966Z,95007.46
2022-10-14T23:28:14.678Z,95005.33
2022-10-14T23:30:41.424Z,95003.15
2022-10-14T23:33:11.020Z,95007.20
2022-10-14T23:35:39.171Z,95018.14
2022-10-14T23:38:06.185Z,95019.17
2022-10-14T23:40:33.790Z,95021.20
2022-10-14T23:43:01.050Z,95018.14
2022-10-14T23:45:27.888Z,95016.92
2022-10-14T23:47:54.655Z,95016.81
2022-10-14T23:50:21.653Z,95015.66
2022-10-14T23:52:48.312Z,95016.92
2022-10-14T23:55:15.069Z,95014.48
2022-10-14T23:57:41.871Z,95015.60
